createdAt,value
2019-05-20T00:00:10.991Z,4.03
2019-05-20T00:02:44.430Z,8.35
2019-05-20T00:05:16.086Z,9.03
2019-05-20T00:07:47.696Z,6.87
2019-05-20T00:10:19.555Z,5.67
2019-05-20T00:12:51.222Z,8.33
2019-05-20T00:15:22.967Z,5.40
2019-05-20T00:17:54.526Z,3.30
2019-05-20T00:20:25.900Z,8.23
2019-05-20T00:22:57.729Z,4.97
2019-05-20T00:25:29.485Z,8.35
2019-05-20T00:28:01.160Z,6.83
2019-05-20T00:30:33.003Z,6.78
2019-05-20T00:33:04.653Z,5.35
2019-05-20T00:35:36.516Z,7.78
2019-05-20T00:38:08.271Z,5.10
2019-05-20T00:40:39.828Z,4.33
2019-05-20T00:43:11.581Z,9.95
2019-05-20T00:45:43.143Z,12.47
2019-05-20T00:48:14.798Z,11.12
2019-05-20T00:50:46.343Z,4.42
2019-05-20T00:53:18.453Z,8.40
2019-05-20T00:55:51.702Z,9.28
2019-05-20T01:00:53.487Z,4.08
2019-05-20T01:03:25.837Z,7.30
2019-05-20T01:05:57.203Z,8.75
2019-05-20T01:08:29.056Z,6.10
2019-05-20T01:11:00.811Z,9.40
2019-05-20T01:16:02.483Z,8.98
2019-05-20T01:18:34.141Z,6.22
2019-05-20T01:21:05.692Z,10.82
2019-05-20T01:23:37.345Z,5.37
2019-05-20T01:26:09.107Z,6.03
2019-05-20T01:28:40.763Z,4.58
2019-05-20T01:31:12.615Z,5.50
2019-05-20T01:33:44.144Z,4.22
2019-05-20T01:36:16.031Z,15.58
2019-05-20T01:38:47.792Z,10.68
2019-05-20T01:41:20.771Z,10.20
2019-05-20T01:43:52.528Z,6.03
2019-05-20T01:48:55.735Z,6.37
2019-05-20T01:51:27.189Z,6.22
2019-05-20T01:53:59.147Z,8.68
2019-05-20T01:56:31.937Z,14.28
2019-05-20T01:59:03.503Z,7.75
2019-05-20T02:01:35.343Z,7.42
2019-05-20T02:04:07.410Z,10.60
2019-05-20T02:06:39.685Z,9.30
2019-05-20T02:09:11.130Z,7.65
2019-05-20T02:11:42.784Z,5.37
2019-05-20T02:14:18.538Z,11.93
2019-05-20T02:16:50.292Z,11.73
2019-05-20T02:19:22.152Z,6.03
2019-05-20T02:21:53.906Z,9.13
2019-05-20T02:26:55.784Z,4.45
2019-05-20T02:29:27.236Z,5.80
2019-05-20T02:32:00.431Z,9.15
2019-05-20T02:34:31.879Z,11.38
2019-05-20T02:37:03.739Z,12.07
2019-05-20T02:39:35.290Z,12.25
2019-05-20T02:42:07.160Z,9.85
2019-05-20T02:44:38.915Z,24.85
2019-05-20T02:47:10.669Z,22.25
2019-05-20T02:49:42.425Z,18.92
2019-05-20T02:52:14.490Z,18.50
2019-05-20T02:54:45.940Z,9.58
2019-05-20T02:57:17.797Z,7.20
2019-05-20T02:59:50.684Z,6.30
2019-05-20T03:02:22.644Z,6.78
2019-05-20T03:04:54.097Z,7.20
2019-05-20T03:07:25.959Z,10.93
2019-05-20T03:09:57.605Z,11.90
2019-05-20T03:12:29.568Z,8.60
2019-05-20T03:15:01.427Z,9.78
2019-05-20T03:17:33.186Z,11.73
2019-05-20T03:20:06.041Z,7.80
2019-05-20T03:22:37.433Z,5.58
2019-05-20T03:25:09.382Z,7.78
2019-05-20T03:27:40.829Z,11.65
2019-05-20T03:30:13.408Z,13.95
2019-05-20T03:32:44.957Z,10.20
2019-05-20T03:35:17.329Z,8.00
2019-05-20T03:37:48.778Z,11.73
2019-05-20T03:40:20.645Z,16.95
2019-05-20T03:42:52.403Z,7.15
2019-05-20T03:45:24.155Z,7.53
2019-05-20T03:47:55.913Z,9.33
2019-05-20T03:50:27.570Z,11.85
2019-05-20T03:52:59.736Z,8.28
2019-05-20T03:55:31.598Z,9.03
2019-05-20T03:58:03.559Z,10.75
2019-05-20T04:00:45.694Z,12.90
2019-05-20T04:03:17.723Z,9.38
2019-05-20T04:05:49.173Z,16.07
2019-05-20T04:08:20.932Z,10.75
2019-05-20T04:10:52.489Z,20.40
2019-05-20T04:13:24.155Z,9.13
2019-05-20T04:15:55.688Z,11.35
2019-05-20T04:18:28.469Z,12.70
2019-05-20T04:21:00.234Z,10.90
2019-05-20T04:26:02.620Z,13.70
2019-05-20T04:28:34.073Z,11.53
2019-05-20T04:31:05.722Z,11.90
2019-05-20T04:33:37.476Z,10.75
2019-05-20T04:36:09.236Z,9.45
2019-05-20T04:38:40.998Z,11.43
2019-05-20T04:41:12.960Z,10.05
2019-05-20T04:43:44.613Z,12.95
2019-05-20T04:46:16.475Z,11.63
2019-05-20T04:48:48.232Z,18.82
2019-05-20T04:51:20.402Z,23.35
2019-05-20T04:53:52.499Z,16.52
2019-05-20T04:56:23.906Z,13.53
2019-05-20T04:58:56.795Z,14.73
2019-05-20T05:01:28.878Z,8.65
2019-05-20T05:04:00.309Z,17.92
2019-05-20T05:06:32.179Z,20.62
2019-05-20T05:09:05.564Z,17.00
2019-05-20T05:11:37.322Z,31.85
2019-05-20T05:14:09.183Z,21.23
2019-05-20T05:16:41.047Z,34.80
2019-05-20T05:19:12.797Z,30.27
2019-05-20T05:21:44.880Z,26.68
2019-05-20T05:24:16.419Z,17.87
2019-05-20T05:26:48.276Z,22.67
2019-05-20T05:29:19.828Z,10.65
2019-05-20T05:31:51.894Z,19.07
2019-05-20T05:34:23.446Z,23.55
2019-05-20T05:36:55.416Z,13.25
2019-05-20T05:39:26.960Z,21.20
2019-05-20T05:41:58.821Z,16.87
2019-05-20T05:44:31.606Z,14.87
2019-05-20T05:47:03.466Z,20.25
2019-05-20T05:49:35.215Z,16.10
2019-05-20T05:52:07.079Z,12.60
2019-05-20T05:54:39.553Z,18.75
2019-05-20T05:57:11.315Z,19.45
2019-05-20T05:59:42.966Z,20.30
2019-05-20T06:02:14.838Z,15.90
2019-05-20T06:04:46.482Z,16.70
2019-05-20T06:07:18.336Z,7.37
2019-05-20T06:09:50.101Z,13.40
2019-05-20T06:12:21.543Z,10.38
2019-05-20T06:14:52.914Z,22.27
2019-05-20T06:17:24.557Z,12.45
2019-05-20T06:19:56.102Z,15.98
2019-05-20T06:22:27.872Z,13.32
2019-05-20T06:24:59.719Z,10.20
2019-05-20T06:27:31.271Z,11.90
2019-05-20T06:30:03.748Z,7.60
2019-05-20T06:32:35.199Z,13.13
2019-05-20T06:35:10.420Z,10.00
2019-05-20T06:37:54.072Z,6.70
2019-05-20T06:40:25.825Z,11.28
2019-05-20T06:42:57.381Z,13.50
2019-05-20T06:45:30.469Z,10.28
2019-05-20T06:48:02.124Z,13.83
2019-05-20T06:50:33.674Z,7.05
2019-05-20T06:53:05.947Z,6.55
2019-05-20T06:55:37.501Z,11.22
2019-05-20T06:58:08.841Z,6.30
2019-05-20T07:00:40.907Z,10.90
2019-05-20T07:03:13.128Z,8.98
2019-05-20T07:05:44.564Z,8.88
2019-05-20T07:08:16.190Z,16.60
2019-05-20T07:10:47.631Z,9.40
2019-05-20T07:13:20.208Z,9.60
2019-05-20T07:15:51.660Z,15.88
2019-05-20T07:18:23.317Z,12.43
2019-05-20T07:20:55.170Z,16.82
2019-05-20T07:23:27.028Z,8.08
2019-05-20T07:25:58.791Z,12.85
2019-05-20T07:28:30.546Z,11.05
2019-05-20T07:31:02.147Z,10.10
2019-05-20T07:33:34.061Z,9.55
2019-05-20T07:36:09.657Z,8.88
2019-05-20T07:38:39.010Z,7.65
2019-05-20T07:41:10.771Z,12.23
2019-05-20T07:43:42.733Z,9.05
2019-05-20T07:46:14.690Z,8.35
2019-05-20T07:48:47.269Z,9.13
2019-05-20T07:51:20.308Z,11.83
2019-05-20T07:53:53.663Z,11.63
2019-05-20T07:56:28.584Z,11.78
2019-05-20T07:59:03.002Z,10.00
2019-05-20T08:01:34.874Z,9.08
2019-05-20T08:04:06.321Z,5.53
2019-05-20T08:06:38.279Z,11.08
2019-05-20T08:09:10.334Z,8.18
2019-05-20T08:11:42.098Z,6.75
2019-05-20T08:14:13.659Z,9.65
2019-05-20T08:16:46.545Z,15.68
2019-05-20T08:19:19.521Z,6.65
2019-05-20T08:21:51.492Z,4.83
2019-05-20T08:24:22.935Z,6.10
2019-05-20T08:26:54.895Z,8.50
2019-05-20T08:29:26.656Z,9.20
2019-05-20T08:31:58.554Z,9.05
2019-05-20T08:34:30.240Z,7.45
2019-05-20T08:37:01.827Z,5.28
2019-05-20T08:39:33.579Z,12.90
2019-05-20T08:42:05.335Z,4.00
2019-05-20T08:44:37.197Z,6.50
2019-05-20T08:47:08.859Z,4.90
2019-05-20T08:49:40.776Z,4.37
2019-05-20T08:52:13.244Z,13.08
2019-05-20T08:54:44.872Z,9.10
2019-05-20T08:57:16.628Z,6.87
2019-05-20T08:59:48.360Z,15.20
2019-05-20T09:02:20.385Z,9.58
2019-05-20T09:04:53.404Z,11.57
2019-05-20T09:07:25.159Z,11.45
2019-05-20T09:09:56.845Z,10.35
2019-05-20T09:12:28.781Z,19.07
2019-05-20T09:15:00.330Z,13.65
2019-05-20T09:17:32.294Z,11.57
2019-05-20T09:20:05.418Z,4.25
2019-05-20T09:22:36.940Z,7.53
2019-05-20T09:25:09.084Z,6.53
2019-05-20T09:27:41.782Z,15.15
2019-05-20T09:30:14.167Z,14.98
2019-05-20T09:32:45.910Z,4.67
2019-05-20T09:35:17.669Z,11.05
2019-05-20T09:37:49.175Z,7.17
2019-05-20T09:40:36.660Z,11.38
2019-05-20T09:43:08.407Z,5.72
2019-05-20T09:45:39.953Z,8.00
2019-05-20T09:48:12.837Z,8.58
2019-05-20T09:50:44.403Z,7.30
2019-05-20T09:53:16.542Z,6.22
2019-05-20T09:55:48.619Z,9.80
2019-05-20T09:58:20.481Z,8.60
2019-05-20T10:00:52.445Z,10.18
2019-05-20T10:03:24.648Z,5.50
2019-05-20T10:05:56.060Z,9.40
2019-05-20T10:08:37.974Z,6.25
2019-05-20T10:11:01.482Z,5.12
2019-05-20T10:13:33.178Z,8.83
2019-05-20T10:16:05.683Z,10.60
2019-05-20T10:18:39.243Z,10.82
2019-05-20T10:21:10.293Z,6.70
2019-05-20T10:23:41.961Z,8.45
2019-05-20T10:26:13.963Z,8.03
2019-05-20T10:28:47.290Z,5.80
2019-05-20T10:31:18.979Z,9.80
2019-05-20T10:33:50.677Z,4.40
2019-05-20T10:36:22.066Z,6.83
2019-05-20T10:38:58.977Z,9.78
2019-05-20T10:41:29.647Z,7.40
2019-05-20T10:44:01.241Z,14.03
2019-05-20T10:46:33.202Z,11.45
2019-05-20T10:49:04.849Z,6.95
2019-05-20T10:51:36.397Z,11.75
2019-05-20T10:54:08.479Z,6.47
2019-05-20T10:56:39.924Z,9.65
2019-05-20T10:59:12.330Z,7.10
2019-05-20T11:01:44.452Z,6.00
2019-05-20T11:04:16.007Z,9.58
2019-05-20T11:06:47.582Z,13.93
2019-05-20T11:09:19.418Z,7.37
2019-05-20T11:11:51.279Z,8.65
2019-05-20T11:14:22.938Z,7.37
2019-05-20T11:16:54.608Z,7.97
2019-05-20T11:19:26.560Z,12.65
2019-05-20T11:21:58.314Z,4.97
2019-05-20T11:24:30.165Z,12.88
2019-05-20T11:27:02.026Z,7.33
2019-05-20T11:29:33.652Z,10.93
2019-05-20T11:32:05.747Z,19.48
2019-05-20T11:34:37.483Z,8.33
2019-05-20T11:37:09.259Z,3.58
2019-05-20T11:39:40.979Z,11.05
2019-05-20T11:42:12.570Z,5.78
2019-05-20T11:44:45.063Z,8.68
2019-05-20T11:47:16.700Z,6.05
2019-05-20T11:49:48.354Z,6.70
2019-05-20T11:52:20.419Z,6.35
2019-05-20T11:54:51.977Z,11.20
2019-05-20T11:57:23.955Z,8.50
2019-05-20T11:59:55.492Z,7.53
2019-05-20T12:02:27.683Z,15.90
2019-05-20T12:05:00.492Z,5.45
2019-05-20T12:07:32.300Z,14.00
2019-05-20T12:10:07.029Z,8.35
2019-05-20T12:12:38.883Z,7.58
2019-05-20T12:15:11.105Z,9.70
2019-05-20T12:17:43.111Z,12.10
2019-05-20T12:20:15.078Z,5.62
2019-05-20T12:22:46.429Z,9.65
2019-05-20T12:25:18.497Z,3.95
2019-05-20T12:27:50.241Z,4.55
2019-05-20T12:30:23.353Z,6.03
2019-05-20T12:33:17.307Z,12.20
2019-05-20T12:35:27.969Z,5.10
2019-05-20T12:37:59.628Z,4.70
2019-05-20T12:40:31.178Z,6.65
2019-05-20T12:43:02.941Z,3.72
2019-05-20T12:45:34.390Z,5.87
2019-05-20T12:48:06.039Z,8.50
2019-05-20T12:50:37.815Z,6.90
2019-05-20T12:53:09.658Z,5.15
2019-05-20T12:55:41.114Z,3.85
2019-05-20T12:58:13.180Z,7.80
2019-05-20T13:00:44.938Z,6.47
2019-05-20T13:03:17.111Z,8.73
2019-05-20T13:05:48.758Z,6.15
2019-05-20T13:08:20.305Z,6.92
2019-05-20T13:10:52.384Z,9.00
2019-05-20T13:13:24.022Z,6.90
2019-05-20T13:15:55.678Z,6.70
2019-05-20T13:18:27.542Z,9.08
2019-05-20T13:20:59.109Z,8.80
2019-05-20T13:23:31.161Z,7.85
2019-05-20T13:26:02.610Z,5.72
2019-05-20T13:28:34.261Z,6.87
2019-05-20T13:31:06.030Z,9.53
2019-05-20T13:33:37.775Z,10.28
2019-05-20T13:36:09.433Z,12.07
2019-05-20T13:38:41.627Z,19.42
2019-05-20T13:41:13.167Z,5.22
2019-05-20T13:43:44.915Z,5.75
2019-05-20T13:46:16.593Z,6.42
2019-05-20T13:48:48.631Z,9.25
2019-05-20T13:51:20.384Z,15.72
2019-05-20T13:53:52.454Z,10.10
2019-05-20T13:56:24.213Z,10.00
2019-05-20T13:58:55.967Z,6.47
2019-05-20T14:01:27.938Z,8.68
2019-05-20T14:03:59.376Z,8.38
2019-05-20T14:06:31.250Z,12.25
2019-05-20T14:09:02.707Z,4.92
2019-05-20T14:11:35.038Z,9.28
2019-05-20T14:14:06.412Z,9.73
2019-05-20T14:16:38.274Z,12.00
2019-05-20T14:19:10.126Z,15.63
2019-05-20T14:21:41.892Z,8.88
2019-05-20T14:24:13.640Z,7.00
2019-05-20T14:26:45.212Z,11.20
2019-05-20T14:29:16.958Z,12.03
2019-05-20T14:31:50.058Z,12.95
2019-05-20T14:34:21.798Z,9.85
2019-05-20T14:36:53.716Z,12.53
2019-05-20T14:39:25.539Z,9.65
2019-05-20T14:41:57.278Z,18.42
2019-05-20T14:44:29.139Z,10.45
2019-05-20T14:47:00.997Z,10.18
2019-05-20T14:49:33.884Z,16.90
2019-05-20T14:52:05.681Z,9.68
2019-05-20T14:54:37.191Z,10.90
2019-05-20T14:57:08.740Z,16.87
2019-05-20T14:59:40.399Z,9.45
2019-05-20T15:02:12.677Z,14.58
2019-05-20T15:04:44.119Z,4.95
2019-05-20T15:07:29.373Z,8.38
2019-05-20T15:09:49.387Z,7.75
2019-05-20T15:12:21.023Z,7.35
2019-05-20T15:14:52.648Z,6.37
2019-05-20T15:17:25.160Z,14.50
2019-05-20T15:19:57.247Z,10.93
2019-05-20T15:22:28.790Z,9.70
2019-05-20T15:25:00.324Z,7.53
2019-05-20T15:27:32.083Z,10.03
2019-05-20T15:30:04.971Z,10.28
2019-05-20T15:32:36.422Z,9.68
2019-05-20T15:35:09.469Z,16.42
2019-05-20T15:37:40.961Z,22.50
2019-05-20T15:40:12.892Z,15.88
2019-05-20T15:42:44.879Z,9.85
2019-05-20T15:45:17.968Z,6.92
2019-05-20T15:47:49.645Z,5.10
2019-05-20T15:50:21.280Z,5.90
2019-05-20T15:52:53.171Z,7.20
2019-05-20T15:55:24.819Z,4.95
2019-05-20T15:57:56.654Z,11.18
2019-05-20T16:00:28.406Z,7.05
2019-05-20T16:03:00.270Z,10.23
2019-05-20T16:05:31.715Z,9.90
2019-05-20T16:08:04.104Z,14.33
2019-05-20T16:10:35.955Z,11.20
2019-05-20T16:13:07.710Z,18.23
2019-05-20T16:15:39.160Z,15.75
2019-05-20T16:18:10.671Z,21.85
2019-05-20T16:20:43.202Z,15.23
2019-05-20T16:23:14.748Z,18.67
2019-05-20T16:25:46.597Z,16.15
2019-05-20T16:28:18.885Z,12.55
2019-05-20T16:30:50.624Z,17.73
2019-05-20T16:33:22.592Z,15.15
2019-05-20T16:35:54.550Z,12.43
2019-05-20T16:38:26.304Z,13.98
2019-05-20T16:40:58.163Z,11.55
2019-05-20T16:43:29.613Z,10.08
2019-05-20T16:46:01.479Z,10.75
2019-05-20T16:48:33.028Z,10.15
2019-05-20T16:51:04.925Z,11.95
2019-05-20T16:53:36.580Z,9.60
2019-05-20T16:56:08.097Z,10.30
2019-05-20T16:58:39.749Z,10.88
2019-05-20T17:01:11.831Z,13.80
2019-05-20T17:03:43.474Z,16.12
2019-05-20T17:06:15.334Z,15.05
2019-05-20T17:08:47.087Z,12.65
2019-05-20T17:11:18.945Z,13.80
2019-05-20T17:13:50.604Z,13.35
2019-05-20T17:16:22.564Z,20.32
2019-05-20T17:18:54.115Z,14.25
2019-05-20T17:21:26.386Z,15.18
2019-05-20T17:23:57.838Z,10.65
2019-05-20T17:26:29.594Z,9.43
2019-05-20T17:29:01.973Z,13.10
2019-05-20T17:31:33.828Z,15.20
2019-05-20T17:34:05.891Z,6.10
2019-05-20T17:36:37.959Z,10.23
2019-05-20T17:39:12.274Z,8.98
2019-05-20T17:41:44.036Z,14.20
2019-05-20T17:44:15.814Z,10.93
2019-05-20T17:46:47.650Z,15.23
2019-05-20T17:49:19.813Z,12.50
2019-05-20T17:51:52.136Z,16.57
2019-05-20T17:54:23.734Z,21.48
2019-05-20T17:56:55.400Z,15.68
2019-05-20T17:59:27.354Z,16.27
2019-05-20T18:01:59.319Z,20.37
2019-05-20T18:04:31.073Z,12.45
2019-05-20T18:07:02.828Z,15.45
2019-05-20T18:09:36.027Z,13.75
2019-05-20T18:12:07.686Z,13.95
2019-05-20T18:14:41.074Z,12.68
2019-05-20T18:17:13.158Z,14.03
2019-05-20T18:19:44.693Z,13.13
2019-05-20T18:22:16.453Z,13.60
2019-05-20T18:24:48.007Z,7.83
2019-05-20T18:27:19.868Z,13.50
2019-05-20T18:29:52.438Z,12.75
2019-05-20T18:32:24.309Z,14.87
2019-05-20T18:34:55.960Z,14.95
2019-05-20T18:37:27.815Z,14.35
2019-05-20T18:40:12.867Z,15.18
2019-05-20T18:42:33.790Z,14.87
2019-05-20T18:45:07.797Z,13.95
2019-05-20T18:47:39.552Z,15.90
2019-05-20T18:50:11.506Z,16.57
2019-05-20T18:52:43.373Z,15.48
2019-05-20T18:55:15.134Z,21.20
2019-05-20T18:57:46.681Z,20.00
2019-05-20T19:00:19.053Z,16.25
2019-05-20T19:02:50.810Z,23.45
2019-05-20T19:05:22.775Z,35.58
2019-05-20T19:07:54.840Z,23.65
2019-05-20T19:10:26.626Z,24.98
2019-05-20T19:12:58.148Z,21.37
2019-05-20T19:18:00.334Z,16.23
2019-05-20T19:20:31.886Z,21.45
2019-05-20T19:23:03.954Z,23.85
2019-05-20T19:25:37.833Z,22.42
2019-05-20T19:28:08.699Z,14.50
2019-05-20T19:30:42.406Z,20.55
2019-05-20T19:33:15.792Z,12.47
2019-05-20T19:35:47.552Z,19.95
2019-05-20T19:38:19.714Z,16.42
2019-05-20T19:40:51.783Z,17.35
2019-05-20T19:43:23.741Z,17.50
2019-05-20T19:45:57.342Z,20.80
2019-05-20T19:48:29.204Z,29.90
2019-05-20T19:51:00.755Z,33.30
2019-05-20T19:53:32.621Z,29.95
2019-05-20T19:56:04.581Z,20.62
2019-05-20T19:58:36.546Z,14.43
2019-05-20T20:01:08.909Z,12.78
2019-05-20T20:03:40.876Z,19.67
2019-05-20T20:06:12.333Z,11.78
2019-05-20T20:08:44.081Z,16.73
2019-05-20T20:11:15.837Z,7.10
2019-05-20T20:13:47.804Z,15.40
2019-05-20T20:16:19.658Z,12.23
2019-05-20T20:18:51.623Z,12.73
2019-05-20T20:21:23.382Z,15.55
2019-05-20T20:23:55.032Z,13.90
2019-05-20T20:26:26.794Z,17.02
2019-05-20T20:28:58.558Z,18.62
2019-05-20T20:31:30.409Z,21.90
2019-05-20T20:34:02.377Z,18.98
2019-05-20T20:36:33.822Z,31.33
2019-05-20T20:39:07.060Z,23.35
2019-05-20T20:41:38.467Z,16.57
2019-05-20T20:44:10.579Z,18.12
2019-05-20T20:46:42.180Z,14.68
2019-05-20T20:49:14.854Z,23.98
2019-05-20T20:51:46.734Z,21.75
2019-05-20T20:54:18.968Z,15.28
2019-05-20T20:56:50.858Z,20.80
2019-05-20T20:59:22.404Z,22.55
2019-05-20T21:01:58.776Z,29.35
2019-05-20T21:04:28.178Z,26.25
2019-05-20T21:06:59.827Z,15.63
2019-05-20T21:09:31.505Z,19.98
2019-05-20T21:12:03.316Z,25.48
2019-05-20T21:14:34.799Z,18.73
2019-05-20T21:17:06.603Z,16.80
2019-05-20T21:19:38.610Z,16.90
2019-05-20T21:22:10.263Z,9.73
2019-05-20T21:24:41.923Z,9.00
2019-05-20T21:27:13.374Z,12.25
2019-05-20T21:29:45.135Z,15.58
2019-05-20T21:32:16.986Z,15.15
2019-05-20T21:34:48.548Z,19.42
2019-05-20T21:37:20.608Z,12.18
2019-05-20T21:39:52.362Z,15.45
2019-05-20T21:42:23.715Z,18.05
2019-05-20T21:44:55.472Z,12.33
2019-05-20T21:47:26.917Z,11.53
2019-05-20T21:49:58.472Z,14.23
2019-05-20T21:52:31.562Z,13.90
2019-05-20T21:55:03.112Z,14.55
2019-05-20T21:57:36.203Z,13.80
2019-05-20T22:00:09.110Z,17.00
2019-05-20T22:02:45.247Z,18.07
2019-05-20T22:05:17.106Z,17.73
2019-05-20T22:07:48.451Z,11.00
2019-05-20T22:10:20.215Z,14.35
2019-05-20T22:12:51.556Z,20.15
2019-05-20T22:15:23.113Z,15.95
2019-05-20T22:17:54.867Z,19.73
2019-05-20T22:20:26.626Z,11.73
2019-05-20T22:23:18.348Z,13.68
2019-05-20T22:25:51.846Z,16.70
2019-05-20T22:28:23.608Z,14.73
2019-05-20T22:30:55.371Z,15.43
2019-05-20T22:33:40.480Z,17.32
2019-05-20T22:36:00.316Z,20.85
2019-05-20T22:38:32.994Z,25.68
2019-05-20T22:41:04.955Z,16.07
2019-05-20T22:43:36.302Z,11.68
2019-05-20T22:48:38.590Z,19.10
2019-05-20T22:51:10.492Z,13.00
2019-05-20T22:53:43.247Z,18.70
2019-05-20T22:56:14.782Z,11.20
2019-05-20T22:58:46.538Z,17.15
2019-05-20T23:01:18.421Z,13.22
2019-05-20T23:03:56.482Z,12.53
2019-05-20T23:06:23.346Z,11.68
2019-05-20T23:08:55.003Z,13.95
2019-05-20T23:11:26.551Z,14.05
2019-05-20T23:13:58.005Z,13.40
2019-05-20T23:16:29.763Z,11.38
2019-05-20T23:19:02.940Z,24.45
2019-05-20T23:24:04.972Z,14.98
2019-05-20T23:29:06.914Z,17.32
2019-05-20T23:34:12.571Z,16.52
2019-05-20T23:36:41.979Z,15.40
2019-05-20T23:39:13.429Z,12.78
2019-05-20T23:41:45.083Z,11.57
2019-05-20T23:46:46.857Z,15.98
2019-05-20T23:49:18.627Z,17.90
2019-05-20T23:51:50.600Z,14.83
2019-05-20T23:54:22.027Z,15.25
2019-05-20T23:56:53.683Z,29.23
